sensor_id;sensor_type;location;lat;lon;timestamp;pressure;altitude;pressure_sealevel;temperature;humidity
57572;BME280;44459;43.522;24.470;2023-02-22T00:01:09;100077.13;;;10.58;56.23
57572;BME280;44459;43.522;24.470;2023-02-22T00:03:50;100085.88;;;10.54;56.65
57572;BME280;44459;43.522;24.470;2023-02-22T00:06:19;100075.31;;;10.46;56.82
57572;BME280;44459;43.522;24.470;2023-02-22T00:08:47;100086.72;;;10.42;57.08
57572;BME280;44459;43.522;24.470;2023-02-22T00:11:14;100079.66;;;10.35;57.41
57572;BME280;44459;43.522;24.470;2023-02-22T00:13:40;100078.75;;;10.32;57.45
57572;BME280;44459;43.522;24.470;2023-02-22T00:16:13;100084.03;;;10.38;57.47
57572;BME280;44459;43.522;24.470;2023-02-22T00:18:39;100078.75;;;10.38;57.27
57572;BME280;44459;43.522;24.470;2023-02-22T00:21:05;100085.81;;;10.39;57.17
57572;BME280;44459;43.522;24.470;2023-02-22T00:23:35;100083.19;;;10.37;57.41
57572;BME280;44459;43.522;24.470;2023-02-22T00:26:05;100086.72;;;10.41;57.25
57572;BME280;44459;43.522;24.470;2023-02-22T00:28:35;100079.66;;;10.35;57.49
57572;BME280;44459;43.522;24.470;2023-02-22T00:31:01;100079.63;;;10.32;57.58
57572;BME280;44459;43.522;24.470;2023-02-22T00:33:29;100091.94;;;10.35;57.54
57572;BME280;44459;43.522;24.470;2023-02-22T00:35:55;100081.38;;;10.32;57.51
57572;BME280;44459;43.522;24.470;2023-02-22T00:38:20;100080.50;;;10.27;57.75
57572;BME280;44459;43.522;24.470;2023-02-22T00:40:46;100091.91;;;10.24;57.96
57572;BME280;44459;43.522;24.470;2023-02-22T00:43:11;100091.91;;;10.20;58.20
57572;BME280;44459;43.522;24.470;2023-02-22T00:45:37;100094.53;;;10.17;58.18
57572;BME280;44459;43.522;24.470;2023-02-22T00:48:04;100092.75;;;10.16;58.28
57572;BME280;44459;43.522;24.470;2023-02-22T00:50:30;100093.56;;;10.11;58.41
57572;BME280;44459;43.522;24.470;2023-02-22T00:52:57;100090.13;;;10.19;58.67
57572;BME280;44459;43.522;24.470;2023-02-22T00:55:26;100085.63;;;10.08;58.88
57572;BME280;44459;43.522;24.470;2023-02-22T00:57:52;100090.03;;;10.11;58.96
57572;BME280;44459;43.522;24.470;2023-02-22T01:00:39;100091.78;;;10.06;58.92
57572;BME280;44459;43.522;24.470;2023-02-22T01:03:07;100083.84;;;10.04;59.23
57572;BME280;44459;43.522;24.470;2023-02-22T01:05:33;100090.00;;;10.03;59.38
57572;BME280;44459;43.522;24.470;2023-02-22T01:08:00;100096.16;;;10.04;59.36
57572;BME280;44459;43.522;24.470;2023-02-22T01:10:28;100082.09;;;10.05;59.69
57572;BME280;44459;43.522;24.470;2023-02-22T01:12:54;100086.50;;;10.06;59.38
57572;BME280;44459;43.522;24.470;2023-02-22T01:15:22;100079.50;;;10.11;59.78
57572;BME280;44459;43.522;24.470;2023-02-22T01:17:50;100077.81;;;10.19;59.57
57572;BME280;44459;43.522;24.470;2023-02-22T01:20:17;100075.22;;;10.24;59.76
57572;BME280;44459;43.522;24.470;2023-02-22T01:22:44;100067.31;;;10.24;59.81
57572;BME280;44459;43.522;24.470;2023-02-22T01:25:14;100068.16;;;10.21;60.36
57572;BME280;44459;43.522;24.470;2023-02-22T01:27:40;100056.72;;;10.22;60.41
57572;BME280;44459;43.522;24.470;2023-02-22T01:30:06;100064.66;;;10.27;60.37
57572;BME280;44459;43.522;24.470;2023-02-22T01:32:34;100060.28;;;10.27;60.60
57572;BME280;44459;43.522;24.470;2023-02-22T01:35:00;100056.75;;;10.27;60.52
57572;BME280;44459;43.522;24.470;2023-02-22T01:37:30;100066.44;;;10.29;60.54
57572;BME280;44459;43.522;24.470;2023-02-22T01:39:55;100057.63;;;10.23;60.61
57572;BME280;44459;43.522;24.470;2023-02-22T01:42:21;100060.25;;;10.23;60.61
57572;BME280;44459;43.522;24.470;2023-02-22T01:47:53;100071.63;;;10.14;61.01
57572;BME280;44459;43.522;24.470;2023-02-22T01:50:20;100065.44;;;10.12;60.99
57572;BME280;44459;43.522;24.470;2023-02-22T01:52:45;100073.31;;;10.07;61.24
57572;BME280;44459;43.522;24.470;2023-02-22T01:55:11;100062.78;;;10.09;60.99
57572;BME280;44459;43.522;24.470;2023-02-22T01:57:37;100071.56;;;10.11;61.09
57572;BME280;44459;43.522;24.470;2023-02-22T02:00:18;100067.16;;;10.04;61.35
57572;BME280;44459;43.522;24.470;2023-02-22T02:02:55;100061.88;;;10.05;61.08
57572;BME280;44459;43.522;24.470;2023-02-22T02:05:24;100060.97;;;9.99;61.34
57572;BME280;44459;43.522;24.470;2023-02-22T02:07:50;100069.78;;;10.01;61.34
57572;BME280;44459;43.522;24.470;2023-02-22T02:10:15;100067.13;;;9.99;61.32
57572;BME280;44459;43.522;24.470;2023-02-22T02:12:44;100063.59;;;10.00;61.31
57572;BME280;44459;43.522;24.470;2023-02-22T02:15:29;100060.97;;;10.00;61.57
57572;BME280;44459;43.522;24.470;2023-02-22T02:17:58;100065.34;;;9.95;61.67
57572;BME280;44459;43.522;24.470;2023-02-22T02:20:43;100066.19;;;9.93;61.88
57572;BME280;44459;43.522;24.470;2023-02-22T02:34:38;100079.28;;;9.79;62.41
57572;BME280;44459;43.522;24.470;2023-02-22T02:37:18;100082.75;;;9.72;62.62
57572;BME280;44459;43.522;24.470;2023-02-22T02:40:13;100086.25;;;9.67;62.95
57572;BME280;44459;43.522;24.470;2023-02-22T02:42:50;100080.06;;;9.60;63.18
57572;BME280;44459;43.522;24.470;2023-02-22T02:45:24;100088.75;;;9.50;63.66
57572;BME280;44459;43.522;24.470;2023-02-22T02:47:54;100097.47;;;9.43;64.27
57572;BME280;44459;43.522;24.470;2023-02-22T02:50:49;100082.50;;;9.36;64.20
57572;BME280;44459;43.522;24.470;2023-02-22T02:53:19;100088.59;;;9.32;64.14
57572;BME280;44459;43.522;24.470;2023-02-22T02:55:45;100077.13;;;9.27;64.39
57572;BME280;44459;43.522;24.470;2023-02-22T02:58:20;100083.28;;;9.26;64.55
57572;BME280;44459;43.522;24.470;2023-02-22T03:00:49;100081.44;;;9.16;64.81
57572;BME280;44459;43.522;24.470;2023-02-22T03:11:13;100084.03;;;9.14;65.34
57572;BME280;44459;43.522;24.470;2023-02-22T03:14:02;100074.44;;;9.21;65.12
57572;BME280;44459;43.522;24.470;2023-02-22T03:16:46;100082.31;;;9.16;65.46
57572;BME280;44459;43.522;24.470;2023-02-22T03:24:47;100082.13;;;8.99;65.77
57572;BME280;44459;43.522;24.470;2023-02-22T03:27:41;100103.16;;;8.92;66.09
57572;BME280;44459;43.522;24.470;2023-02-22T03:30:21;100097.81;;;8.89;65.95
57572;BME280;44459;43.522;24.470;2023-02-22T03:32:51;100096.09;;;8.88;65.99
57572;BME280;44459;43.522;24.470;2023-02-22T03:35:23;100098.63;;;8.82;65.94
57572;BME280;44459;43.522;24.470;2023-02-22T03:37:54;100106.47;;;8.76;66.17
57572;BME280;44459;43.522;24.470;2023-02-22T03:40:26;100107.28;;;8.70;66.62
57572;BME280;44459;43.522;24.470;2023-02-22T03:43:04;100116.91;;;8.68;67.74
57572;BME280;44459;43.522;24.470;2023-02-22T03:45:32;100112.50;;;8.66;68.15
57572;BME280;44459;43.522;24.470;2023-02-22T03:48:15;100121.97;;;8.50;68.42
57572;BME280;44459;43.522;24.470;2023-02-22T03:50:44;100115.66;;;8.40;68.88
57572;BME280;44459;43.522;24.470;2023-02-22T03:53:10;100103.38;;;8.36;68.73
57572;BME280;44459;43.522;24.470;2023-02-22T03:55:35;100105.97;;;8.35;68.77
57572;BME280;44459;43.522;24.470;2023-02-22T03:58:05;100111.06;;;8.24;69.05
57572;BME280;44459;43.522;24.470;2023-02-22T04:00:33;100110.94;;;8.15;69.84
57572;BME280;44459;43.522;24.470;2023-02-22T04:02:59;100108.22;;;8.07;70.35
57572;BME280;44459;43.522;24.470;2023-02-22T04:05:25;100102.94;;;8.07;70.27
57572;BME280;44459;43.522;24.470;2023-02-22T04:07:52;100107.31;;;8.07;70.74
57572;BME280;44459;43.522;24.470;2023-02-22T04:10:17;100112.47;;;7.99;71.31
57572;BME280;44459;43.522;24.470;2023-02-22T04:12:43;100116.88;;;8.00;70.82
57572;BME280;44459;43.522;24.470;2023-02-22T04:15:12;100116.91;;;8.03;70.69
57572;BME280;44459;43.522;24.470;2023-02-22T04:17:37;100116.91;;;8.03;70.27
57572;BME280;44459;43.522;24.470;2023-02-22T04:20:03;100132.63;;;8.00;70.65
57572;BME280;44459;43.522;24.470;2023-02-22T04:22:30;100133.47;;;7.98;70.75
57572;BME280;44459;43.522;24.470;2023-02-22T04:24:56;100129.00;;;7.92;70.27
57572;BME280;44459;43.522;24.470;2023-02-22T04:27:21;100124.50;;;7.85;70.85
57572;BME280;44459;43.522;24.470;2023-02-22T04:29:47;100121.81;;;7.79;71.50
57572;BME280;44459;43.522;24.470;2023-02-22T04:32:12;100117.19;;;7.63;71.44
57572;BME280;44459;43.522;24.470;2023-02-22T04:34:37;100126.59;;;7.50;72.19
57572;BME280;44459;43.522;24.470;2023-02-22T04:37:03;100128.97;;;7.35;72.82
57572;BME280;44459;43.522;24.470;2023-02-22T04:39:28;100127.84;;;7.23;74.00
57572;BME280;44459;43.522;24.470;2023-02-22T04:41:54;100127.91;;;7.26;74.36
57572;BME280;44459;43.522;24.470;2023-02-22T04:44:20;100131.41;;;7.25;74.13
57572;BME280;44459;43.522;24.470;2023-02-22T04:46:45;100134.94;;;7.27;74.12
57572;BME280;44459;43.522;24.470;2023-02-22T04:49:11;100127.09;;;7.30;74.16
57572;BME280;44459;43.522;24.470;2023-02-22T04:51:36;100134.03;;;7.26;73.97
57572;BME280;44459;43.522;24.470;2023-02-22T04:54:02;100144.47;;;7.22;74.38
57572;BME280;44459;43.522;24.470;2023-02-22T04:56:27;100138.34;;;7.23;74.11
57572;BME280;44459;43.522;24.470;2023-02-22T04:58:53;100133.84;;;7.14;74.10
57572;BME280;44459;43.522;24.470;2023-02-22T05:01:18;100139.03;;;7.13;74.23
57572;BME280;44459;43.522;24.470;2023-02-22T05:03:44;100138.06;;;7.06;74.29
57572;BME280;44459;43.522;24.470;2023-02-22T05:06:09;100137.00;;;6.96;74.48
57572;BME280;44459;43.522;24.470;2023-02-22T05:08:36;100139.53;;;6.90;75.68
57572;BME280;44459;43.522;24.470;2023-02-22T05:11:02;100137.69;;;6.86;75.92
57572;BME280;44459;43.522;24.470;2023-02-22T05:13:29;100144.97;;;7.01;76.49
57572;BME280;44459;43.522;24.470;2023-02-22T05:15:54;100142.63;;;7.16;76.04
57572;BME280;44459;43.522;24.470;2023-02-22T05:18:20;100141.28;;;7.39;74.99
57572;BME280;44459;43.522;24.470;2023-02-22T05:20:45;100145.75;;;7.45;74.81
57572;BME280;44459;43.522;24.470;2023-02-22T05:23:11;100149.31;;;7.50;74.85
57572;BME280;44459;43.522;24.470;2023-02-22T05:25:36;100144.25;;;7.60;74.26
57572;BME280;44459;43.522;24.470;2023-02-22T05:28:07;100153.25;;;7.73;74.10
57572;BME280;44459;43.522;24.470;2023-02-22T05:30:35;100153.41;;;7.85;73.69
57572;BME280;44459;43.522;24.470;2023-02-22T05:33:04;100161.44;;;7.93;72.85
57572;BME280;44459;43.522;24.470;2023-02-22T05:35:30;100148.16;;;7.85;72.35
57572;BME280;44459;43.522;24.470;2023-02-22T05:37:56;100155.09;;;7.80;72.13
57572;BME280;44459;43.522;24.470;2023-02-22T05:40:24;100159.31;;;7.71;73.04
57572;BME280;44459;43.522;24.470;2023-02-22T05:42:51;100166.28;;;7.69;73.85
57572;BME280;44459;43.522;24.470;2023-02-22T05:45:19;100169.00;;;7.73;73.63
57572;BME280;44459;43.522;24.470;2023-02-22T05:47:45;100162.81;;;7.71;73.65
57572;BME280;44459;43.522;24.470;2023-02-22T05:50:12;100171.59;;;7.72;73.94
57572;BME280;44459;43.522;24.470;2023-02-22T05:52:38;100172.44;;;7.69;73.82
57572;BME280;44459;43.522;24.470;2023-02-22T05:55:05;100173.28;;;7.67;73.86
57572;BME280;44459;43.522;24.470;2023-02-22T05:57:30;100177.59;;;7.65;74.26
57572;BME280;44459;43.522;24.470;2023-02-22T05:59:56;100188.09;;;7.63;75.16
57572;BME280;44459;43.522;24.470;2023-02-22T06:02:21;100190.81;;;7.69;75.42
57572;BME280;44459;43.522;24.470;2023-02-22T06:04:47;100188.34;;;7.78;75.91
57572;BME280;44459;43.522;24.470;2023-02-22T06:07:13;100182.41;;;7.90;75.34
57572;BME280;44459;43.522;24.470;2023-02-22T06:09:39;100182.59;;;8.02;75.44
57572;BME280;44459;43.522;24.470;2023-02-22T06:12:04;100187.19;;;8.17;74.93
57572;BME280;44459;43.522;24.470;2023-02-22T06:14:30;100185.75;;;8.37;73.98
57572;BME280;44459;43.522;24.470;2023-02-22T06:16:56;100183.38;;;8.53;73.44
57572;BME280;44459;43.522;24.470;2023-02-22T06:19:23;100192.28;;;8.63;73.50
57572;BME280;44459;43.522;24.470;2023-02-22T06:21:53;100194.94;;;8.66;73.27
57572;BME280;44459;43.522;24.470;2023-02-22T06:24:19;100190.59;;;8.70;73.25
57572;BME280;44459;43.522;24.470;2023-02-22T06:26:44;100201.19;;;8.74;73.33
57572;BME280;44459;43.522;24.470;2023-02-22T06:29:10;100198.66;;;8.83;72.92
57572;BME280;44459;43.522;24.470;2023-02-22T06:31:36;100206.75;;;8.98;72.54
57572;BME280;44459;43.522;24.470;2023-02-22T06:34:01;100207.84;;;9.16;71.83
57572;BME280;44459;43.522;24.470;2023-02-22T06:36:27;100218.56;;;9.34;70.96
57572;BME280;44459;43.522;24.470;2023-02-22T06:38:55;100215.19;;;9.44;70.40
57572;BME280;44459;43.522;24.470;2023-02-22T06:41:20;100222.34;;;9.57;70.33
57572;BME280;44459;43.522;24.470;2023-02-22T06:43:46;100211.91;;;9.68;70.00
57572;BME280;44459;43.522;24.470;2023-02-22T06:46:12;100226.06;;;9.83;69.68
57572;BME280;44459;43.522;24.470;2023-02-22T06:48:38;100220.09;;;9.99;69.33
57572;BME280;44459;43.522;24.470;2023-02-22T06:51:07;100223.78;;;10.17;68.74
57572;BME280;44459;43.522;24.470;2023-02-22T06:53:33;100222.09;;;10.32;68.51
57572;BME280;44459;43.522;24.470;2023-02-22T06:55:58;100221.31;;;10.48;67.92
57572;BME280;44459;43.522;24.470;2023-02-22T06:58:24;100226.69;;;10.60;66.92
57572;BME280;44459;43.522;24.470;2023-02-22T07:00:49;100222.34;;;10.73;67.07
57572;BME280;44459;43.522;24.470;2023-02-22T07:03:15;100222.44;;;10.91;66.10
57572;BME280;44459;43.522;24.470;2023-02-22T07:05:41;100225.16;;;11.09;65.27
57572;BME280;44459;43.522;24.470;2023-02-22T07:08:06;100229.63;;;11.27;64.73
57572;BME280;44459;43.522;24.470;2023-02-22T07:10:33;100234.97;;;11.50;63.86
57572;BME280;44459;43.522;24.470;2023-02-22T07:13:00;100220.03;;;11.69;62.90
57572;BME280;44459;43.522;24.470;2023-02-22T07:15:28;100224.47;;;11.98;61.74
57572;BME280;44459;43.522;24.470;2023-02-22T07:17:54;100230.66;;;12.38;60.56
57572;BME280;44459;43.522;24.470;2023-02-22T07:20:21;100234.75;;;13.38;57.78
57572;BME280;44459;43.522;24.470;2023-02-22T07:22:48;100220.84;;;14.29;55.09
57572;BME280;44459;43.522;24.470;2023-02-22T07:25:13;100220.66;;;15.25;52.00
57572;BME280;44459;43.522;24.470;2023-02-22T07:27:40;100219.56;;;16.00;49.64
57572;BME280;44459;43.522;24.470;2023-02-22T07:30:28;100225.06;;;16.42;47.74
57572;BME280;44459;43.522;24.470;2023-02-22T07:32:56;100220.69;;;16.39;47.29
57572;BME280;44459;43.522;24.470;2023-02-22T07:35:24;100212.59;;;16.93;46.53
57572;BME280;44459;43.522;24.470;2023-02-22T07:37:50;100214.69;;;16.77;46.16
57572;BME280;44459;43.522;24.470;2023-02-22T07:40:17;100213.28;;;17.02;45.50
57572;BME280;44459;43.522;24.470;2023-02-22T07:45:34;100216.53;;;17.96;43.60
57572;BME280;44459;43.522;24.470;2023-02-22T07:48:01;100196.69;;;18.40;42.67
57572;BME280;44459;43.522;24.470;2023-02-22T07:50:28;100216.72;;;17.89;43.63
57572;BME280;44459;43.522;24.470;2023-02-22T07:52:59;100211.72;;;18.46;42.54
57572;BME280;44459;43.522;24.470;2023-02-22T07:55:28;100223.69;;;18.65;41.75
57572;BME280;44459;43.522;24.470;2023-02-22T07:57:56;100221.72;;;18.73;41.53
57572;BME280;44459;43.522;24.470;2023-02-22T08:00:25;100222.97;;;18.60;41.99
57572;BME280;44459;43.522;24.470;2023-02-22T08:02:51;100224.50;;;19.01;41.25
57572;BME280;44459;43.522;24.470;2023-02-22T08:05:17;100222.41;;;19.10;40.76
57572;BME280;44459;43.522;24.470;2023-02-22T08:07:43;100212.63;;;19.09;40.89
57572;BME280;44459;43.522;24.470;2023-02-22T08:10:09;100219.75;;;18.80;41.15
57572;BME280;44459;43.522;24.470;2023-02-22T08:12:36;100214.00;;;18.93;41.32
57572;BME280;44459;43.522;24.470;2023-02-22T08:15:07;100211.03;;;19.04;41.33
57572;BME280;44459;43.522;24.470;2023-02-22T08:17:33;100210.34;;;19.27;40.53
57572;BME280;44459;43.522;24.470;2023-02-22T08:19:58;100206.00;;;19.53;40.01
57572;BME280;44459;43.522;24.470;2023-02-22T08:22:23;100217.06;;;18.80;41.33
57572;BME280;44459;43.522;24.470;2023-02-22T08:24:52;100211.31;;;19.24;40.43
57572;BME280;44459;43.522;24.470;2023-02-22T08:27:26;100212.66;;;19.39;40.01
57572;BME280;44459;43.522;24.470;2023-02-22T08:29:52;100213.47;;;19.12;41.00
57572;BME280;44459;43.522;24.470;2023-02-22T08:32:18;100206.66;;;19.01;41.72
57572;BME280;44459;43.522;24.470;2023-02-22T08:34:45;100217.94;;;19.42;40.63
57572;BME280;44459;43.522;24.470;2023-02-22T08:37:10;100209.25;;;20.45;38.38
57572;BME280;44459;43.522;24.470;2023-02-22T08:39:36;100209.88;;;19.43;39.68
57572;BME280;44459;43.522;24.470;2023-02-22T08:42:01;100216.22;;;17.73;43.44
57572;BME280;44459;43.522;24.470;2023-02-22T08:44:27;100218.38;;;16.70;46.92
57572;BME280;44459;43.522;24.470;2023-02-22T08:46:52;100209.19;;;15.85;49.11
57572;BME280;44459;43.522;24.470;2023-02-22T08:49:19;100210.63;;;15.45;50.71
57572;BME280;44459;43.522;24.470;2023-02-22T08:51:44;100212.50;;;15.40;51.36
57572;BME280;44459;43.522;24.470;2023-02-22T08:54:10;100216.22;;;15.27;51.88
57572;BME280;44459;43.522;24.470;2023-02-22T08:56:35;100211.16;;;15.05;51.77
57572;BME280;44459;43.522;24.470;2023-02-22T08:59:01;100209.53;;;14.95;52.13
57572;BME280;44459;43.522;24.470;2023-02-22T09:01:26;100211.31;;;14.95;52.34
57572;BME280;44459;43.522;24.470;2023-02-22T09:03:53;100201.50;;;14.98;52.66
57572;BME280;44459;43.522;24.470;2023-02-22T09:06:20;100218.44;;;14.90;52.33
57572;BME280;44459;43.522;24.470;2023-02-22T09:08:46;100224.59;;;14.93;53.43
57572;BME280;44459;43.522;24.470;2023-02-22T09:11:11;100209.44;;;15.01;52.98
57572;BME280;44459;43.522;24.470;2023-02-22T09:13:37;100220.13;;;14.97;51.99
57572;BME280;44459;43.522;24.470;2023-02-22T09:16:02;100223.72;;;14.96;51.97
57572;BME280;44459;43.522;24.470;2023-02-22T09:18:28;100218.34;;;14.97;52.51
57572;BME280;44459;43.522;24.470;2023-02-22T09:20:53;100204.25;;;14.92;51.90
57572;BME280;44459;43.522;24.470;2023-02-22T09:23:20;100201.59;;;14.91;52.35
57572;BME280;44459;43.522;24.470;2023-02-22T09:25:49;100201.47;;;15.00;52.00
57572;BME280;44459;43.522;24.470;2023-02-22T09:28:15;100212.09;;;15.01;52.55
57572;BME280;44459;43.522;24.470;2023-02-22T09:30:41;100203.06;;;15.15;52.69
57572;BME280;44459;43.522;24.470;2023-02-22T09:33:11;100197.56;;;15.30;51.83
57572;BME280;44459;43.522;24.470;2023-02-22T09:35:38;100191.31;;;15.34;51.35
57572;BME280;44459;43.522;24.470;2023-02-22T09:38:07;100192.25;;;15.30;51.49
57572;BME280;44459;43.522;24.470;2023-02-22T09:40:35;100187.66;;;15.41;51.41
57572;BME280;44459;43.522;24.470;2023-02-22T09:46:11;100202.63;;;15.48;51.14
57572;BME280;44459;43.522;24.470;2023-02-22T09:51:26;100183.13;;;15.46;50.43
57572;BME280;44459;43.522;24.470;2023-02-22T09:53:57;100183.94;;;15.52;50.44
57572;BME280;44459;43.522;24.470;2023-02-22T09:56:25;100185.59;;;15.61;50.95
57572;BME280;44459;43.522;24.470;2023-02-22T09:58:56;100176.84;;;15.53;50.96
57572;BME280;44459;43.522;24.470;2023-02-22T10:01:38;100176.69;;;15.62;51.04
57572;BME280;44459;43.522;24.470;2023-02-22T10:04:23;100182.78;;;15.72;50.41
57572;BME280;44459;43.522;24.470;2023-02-22T10:07:29;100169.53;;;15.67;50.63
57572;BME280;44459;43.522;24.470;2023-02-22T10:09:56;100174.69;;;15.78;50.63
57572;BME280;44459;43.522;24.470;2023-02-22T10:12:25;100176.47;;;15.77;49.79
57572;BME280;44459;43.522;24.470;2023-02-22T10:15:27;100153.28;;;15.84;49.74
57572;BME280;44459;43.522;24.470;2023-02-22T10:24:19;100149.44;;;16.01;50.17
57572;BME280;44459;43.522;24.470;2023-02-22T10:26:51;100143.34;;;15.95;49.53
57572;BME280;44459;43.522;24.470;2023-02-22T10:29:26;100138.03;;;15.95;50.17
57572;BME280;44459;43.522;24.470;2023-02-22T10:32:03;100143.22;;;16.02;49.61
57572;BME280;44459;43.522;24.470;2023-02-22T10:34:43;100132.31;;;16.16;49.71
57572;BME280;44459;43.522;24.470;2023-02-22T10:39:55;100124.66;;;15.98;50.23
57572;BME280;44459;43.522;24.470;2023-02-22T10:42:25;100118.94;;;16.19;50.05
57572;BME280;44459;43.522;24.470;2023-02-22T10:44:52;100123.22;;;16.28;49.57
57572;BME280;44459;43.522;24.470;2023-02-22T10:47:19;100115.19;;;16.31;50.02
57572;BME280;44459;43.522;24.470;2023-02-22T10:50:11;100121.28;;;16.36;49.36
57572;BME280;44459;43.522;24.470;2023-02-22T10:52:38;100115.06;;;16.37;49.65
57572;BME280;44459;43.522;24.470;2023-02-22T10:55:04;100105.44;;;16.28;49.97
57572;BME280;44459;43.522;24.470;2023-02-22T10:57:36;100104.41;;;16.35;50.15
57572;BME280;44459;43.522;24.470;2023-02-22T11:00:18;100102.56;;;16.39;50.33
57572;BME280;44459;43.522;24.470;2023-02-22T11:02:53;100102.56;;;16.39;50.05
57572;BME280;44459;43.522;24.470;2023-02-22T11:05:36;100105.09;;;16.46;50.15
57572;BME280;44459;43.522;24.470;2023-02-22T11:10:46;100102.41;;;16.48;50.22
57572;BME280;44459;43.522;24.470;2023-02-22T11:13:32;100084.50;;;16.56;49.68
57572;BME280;44459;43.522;24.470;2023-02-22T11:16:00;100077.13;;;16.69;50.56
57572;BME280;44459;43.522;24.470;2023-02-22T11:18:31;100087.75;;;16.70;50.38
57572;BME280;44459;43.522;24.470;2023-02-22T11:21:05;100070.44;;;16.46;49.99
57572;BME280;44459;43.522;24.470;2023-02-22T11:23:33;100074.56;;;16.63;50.45
57572;BME280;44459;43.522;24.470;2023-02-22T11:26:10;100074.72;;;16.55;49.89
57572;BME280;44459;43.522;24.470;2023-02-22T11:28:42;100072.22;;;16.46;49.87
57572;BME280;44459;43.522;24.470;2023-02-22T11:31:20;100060.47;;;16.57;50.34
57572;BME280;44459;43.522;24.470;2023-02-22T11:33:53;100064.09;;;16.53;49.96
57572;BME280;44459;43.522;24.470;2023-02-22T11:36:36;100064.63;;;16.72;49.67
57572;BME280;44459;43.522;24.470;2023-02-22T11:39:10;100063.97;;;16.59;48.81
57572;BME280;44459;43.522;24.470;2023-02-22T11:41:45;100069.22;;;16.64;49.47
57572;BME280;44459;43.522;24.470;2023-02-22T11:46:48;100063.50;;;16.82;48.98
57572;BME280;44459;43.522;24.470;2023-02-22T11:49:15;100048.16;;;16.92;48.59
57572;BME280;44459;43.522;24.470;2023-02-22T11:54:12;100056.81;;;17.03;48.45
57572;BME280;44459;43.522;24.470;2023-02-22T11:56:47;100053.53;;;16.90;47.68
57572;BME280;44459;43.522;24.470;2023-02-22T11:59:18;100054.56;;;16.85;47.69
57572;BME280;44459;43.522;24.470;2023-02-22T12:02:13;100051.66;;;16.95;48.02
57572;BME280;44459;43.522;24.470;2023-02-22T12:04:54;100037.34;;;16.99;47.60
57572;BME280;44459;43.522;24.470;2023-02-22T12:07:50;100043.38;;;17.07;47.92
57572;BME280;44459;43.522;24.470;2023-02-22T12:18:11;100035.38;;;17.07;46.32
57572;BME280;44459;43.522;24.470;2023-02-22T12:28:26;100039.69;;;17.13;46.40
57572;BME280;44459;43.522;24.470;2023-02-22T12:31:05;100028.09;;;17.14;46.29
57572;BME280;44459;43.522;24.470;2023-02-22T12:36:17;100021.88;;;17.14;46.33
57572;BME280;44459;43.522;24.470;2023-02-22T12:38:49;100029.81;;;17.17;46.00
57572;BME280;44459;43.522;24.470;2023-02-22T12:47:04;100026.00;;;17.27;46.43
57572;BME280;44459;43.522;24.470;2023-02-22T12:55:03;100030.34;;;17.31;46.61
57572;BME280;44459;43.522;24.470;2023-02-22T12:57:40;100031.53;;;17.19;46.50
57572;BME280;44459;43.522;24.470;2023-02-22T13:02:52;100021.66;;;17.23;46.16
57572;BME280;44459;43.522;24.470;2023-02-22T13:05:21;100023.34;;;17.27;46.34
57572;BME280;44459;43.522;24.470;2023-02-22T13:20:02;100016.13;;;17.32;45.81
57572;BME280;44459;43.522;24.470;2023-02-22T13:22:37;100020.31;;;17.42;45.54
57572;BME280;44459;43.522;24.470;2023-02-22T13:27:40;100031.06;;;17.39;45.20
57572;BME280;44459;43.522;24.470;2023-02-22T13:30:44;100025.63;;;17.42;45.40
57572;BME280;44459;43.522;24.470;2023-02-22T13:43:54;100011.69;;;17.31;45.60
57572;BME280;44459;43.522;24.470;2023-02-22T13:51:54;100014.91;;;17.43;45.22
57572;BME280;44459;43.522;24.470;2023-02-22T13:56:58;100019.69;;;17.31;45.26
57572;BME280;44459;43.522;24.470;2023-02-22T13:59:32;100022.34;;;17.31;44.74
57572;BME280;44459;43.522;24.470;2023-02-22T14:01:59;100025.63;;;17.42;44.84
57572;BME280;44459;43.522;24.470;2023-02-22T14:17:41;100009.53;;;17.45;44.55
57572;BME280;44459;43.522;24.470;2023-02-22T14:22:45;100007.97;;;18.95;40.88
57572;BME280;44459;43.522;24.470;2023-02-22T14:27:57;100011.81;;;21.11;35.33
57572;BME280;44459;43.522;24.470;2023-02-22T14:30:28;100002.25;;;21.47;35.36
57572;BME280;44459;43.522;24.470;2023-02-22T14:32:55;100002.00;;;21.53;34.89
57572;BME280;44459;43.522;24.470;2023-02-22T14:35:23;100007.16;;;21.16;34.61
57572;BME280;44459;43.522;24.470;2023-02-22T14:37:54;99997.72;;;21.69;33.86
57572;BME280;44459;43.522;24.470;2023-02-22T14:40:28;100009.31;;;21.06;34.92
57572;BME280;44459;43.522;24.470;2023-02-22T14:45:56;99996.66;;;20.86;35.63
57572;BME280;44459;43.522;24.470;2023-02-22T14:48:34;100006.19;;;20.48;36.43
57572;BME280;44459;43.522;24.470;2023-02-22T14:51:22;99994.94;;;20.39;36.51
57572;BME280;44459;43.522;24.470;2023-02-22T14:54:01;99984.50;;;20.31;35.94
57572;BME280;44459;43.522;24.470;2023-02-22T14:56:40;99993.09;;;20.41;36.53
57572;BME280;44459;43.522;24.470;2023-02-22T14:59:21;99994.25;;;19.84;37.28
57572;BME280;44459;43.522;24.470;2023-02-22T15:01:48;99990.44;;;20.16;36.95
57572;BME280;44459;43.522;24.470;2023-02-22T15:06:42;99991.00;;;20.24;37.37
57572;BME280;44459;43.522;24.470;2023-02-22T15:09:16;99989.94;;;20.30;36.83
57572;BME280;44459;43.522;24.470;2023-02-22T15:12:09;99985.63;;;20.24;37.00
57572;BME280;44459;43.522;24.470;2023-02-22T15:14:37;99996.56;;;20.66;36.76
57572;BME280;44459;43.522;24.470;2023-02-22T15:17:12;100004.31;;;20.02;37.21
57572;BME280;44459;43.522;24.470;2023-02-22T15:19:40;100005.78;;;20.36;37.50